Time;durP1;ratioP1;P1;durP2;ratioP2;P2;SDS_P1;SDS_P2;PMS_P1;PMS_P2;Temp;Humidity;BMP_temperature;BMP_pressure;BME280_temperature;BME280_humidity;BME280_pressure;Samples;Min_cycle;Max_cycle;Signal;HPM_P1;HPM_P2
2022/10/24 00:00:42;;;;;;;3.03;2.60;;;19.10;77.20;20.30;99899.00;;;;5089417;28;20202;-53
2022/10/24 00:03:08;;;;;;;2.70;2.37;;;19.10;77.10;20.30;99901.00;;;;5089157;28;20168;-52
2022/10/24 00:05:34;;;;;;;3.57;2.40;;;19.10;77.10;20.30;99893.00;;;;5089116;28;20252;-53
2022/10/24 00:07:59;;;;;;;2.60;2.40;;;19.00;77.00;20.30;99889.00;;;;5089364;28;20174;-53
2022/10/24 00:10:25;;;;;;;2.60;2.40;;;19.10;77.00;20.20;99894.00;;;;5089347;28;20184;-53
2022/10/24 00:12:53;;;;;;;2.57;2.37;;;19.10;77.10;20.30;99889.00;;;;5089383;28;20176;-53
2022/10/24 00:15:18;;;;;;;2.53;2.20;;;19.00;77.00;20.20;99894.00;;;;5088318;28;20182;-52
2022/10/24 00:17:44;;;;;;;3.10;2.30;;;19.10;77.10;20.30;99892.00;;;;5088881;28;20186;-54
2022/10/24 00:20:10;;;;;;;2.80;2.50;;;19.10;77.00;20.20;99901.00;;;;5088985;28;20204;-52
2022/10/24 00:22:36;;;;;;;3.30;2.33;;;19.00;77.00;20.20;99898.00;;;;5089454;28;20197;-53
2022/10/24 00:25:02;;;;;;;2.77;2.40;;;19.10;77.10;20.20;99886.00;;;;5088915;28;20173;-53
2022/10/24 00:27:27;;;;;;;3.80;2.50;;;19.00;77.00;20.20;99891.00;;;;5087757;28;20193;-52
2022/10/24 00:29:53;;;;;;;2.50;2.30;;;19.00;77.00;20.20;99894.00;;;;5088824;28;20203;-52
2022/10/24 00:32:19;;;;;;;2.50;2.30;;;19.00;76.90;20.20;99893.00;;;;5087350;28;20562;-53
2022/10/24 00:34:44;;;;;;;2.90;2.30;;;19.00;77.00;20.20;99877.00;;;;5088619;28;20219;-53
2022/10/24 00:37:10;;;;;;;3.80;2.50;;;19.00;77.00;20.20;99869.00;;;;5088640;28;20180;-53
2022/10/24 00:39:36;;;;;;;3.70;2.43;;;19.00;77.20;20.20;99886.00;;;;5088482;28;20196;-53
2022/10/24 00:42:02;;;;;;;3.63;2.37;;;19.00;77.00;20.20;99876.00;;;;5088697;28;20546;-53
2022/10/24 00:44:30;;;;;;;2.43;2.23;;;19.00;77.00;20.20;99868.00;;;;5088553;28;20627;-53
2022/10/24 00:47:12;;;;;;;2.60;2.40;;;19.00;77.00;20.20;99889.00;;;;5087408;28;20169;-52
2022/10/24 00:49:49;;;;;;;2.80;2.47;;;19.00;77.00;20.20;99882.00;;;;5087284;28;20196;-53
2022/10/24 00:52:24;;;;;;;2.50;2.30;;;18.90;77.00;20.20;99874.00;;;;5088642;28;20169;-54
2022/10/24 00:54:50;;;;;;;2.50;2.30;;;19.00;77.00;20.20;99885.00;;;;5086846;28;20165;-53
2022/10/24 00:57:21;;;;;;;2.67;2.37;;;19.00;77.00;20.10;99888.00;;;;5070904;28;20173;-54
2022/10/24 00:59:52;;;;;;;2.70;2.30;;;19.00;77.00;20.20;99860.00;;;;5087163;28;20201;-53
2022/10/24 01:02:17;;;;;;;2.90;2.47;;;18.90;76.80;20.10;99886.00;;;;5087400;28;20186;-53
2022/10/24 01:04:45;;;;;;;2.50;2.30;;;19.00;77.00;20.10;99887.00;;;;5088316;28;20169;-53
2022/10/24 01:07:35;;;;;;;2.73;2.37;;;18.90;76.80;20.10;99875.00;;;;5088516;28;20675;-53
2022/10/24 01:10:48;;;;;;;2.43;2.23;;;18.90;76.80;20.10;99875.00;;;;5088074;28;20661;-53
2022/10/24 01:13:29;;;;;;;3.23;2.40;;;18.90;76.80;20.10;99880.00;;;;5086914;28;20163;-53
2022/10/24 01:16:31;;;;;;;3.37;2.30;;;18.90;76.70;20.10;99869.00;;;;5086917;28;20177;-52
2022/10/24 01:19:24;;;;;;;2.50;2.30;;;18.90;76.80;20.10;99867.00;;;;5087630;28;20281;-52
2022/10/24 01:21:56;;;;;;;2.93;2.10;;;18.90;76.80;20.10;99861.00;;;;5088299;28;20201;-52
2022/10/24 01:24:35;;;;;;;2.40;2.20;;;18.90;76.80;20.10;99864.00;;;;5086451;28;20165;-52
2022/10/24 01:27:26;;;;;;;2.70;2.30;;;18.90;76.80;20.10;99856.00;;;;5087328;28;20167;-54
2022/10/24 01:30:13;;;;;;;2.30;2.10;;;18.90;76.80;20.00;99860.00;;;;5091178;28;20190;-53
2022/10/24 01:32:59;;;;;;;2.13;2.00;;;18.90;76.80;20.00;99848.00;;;;5076669;28;20181;-54
2022/10/24 01:35:39;;;;;;;2.40;2.20;;;18.90;76.80;20.00;99836.00;;;;5091421;28;20189;-52
2022/10/24 01:38:29;;;;;;;3.00;2.17;;;18.90;76.80;20.00;99839.00;;;;5092844;28;20157;-53
2022/10/24 01:41:11;;;;;;;3.17;2.30;;;18.90;76.90;20.00;99836.00;;;;5092832;28;20594;-53
2022/10/24 01:43:46;;;;;;;2.40;2.20;;;18.90;76.80;20.00;99837.00;;;;5090927;28;20603;-53
2022/10/24 01:46:16;;;;;;;2.30;2.10;;;18.80;76.70;20.00;99830.00;;;;5090871;28;20164;-53
2022/10/24 01:48:46;;;;;;;2.93;2.40;;;18.90;76.80;20.00;99825.00;;;;5091020;28;20734;-54
2022/10/24 01:51:13;;;;;;;2.37;2.17;;;18.80;76.70;20.00;99828.00;;;;5091031;28;20589;-54
2022/10/24 01:53:39;;;;;;;2.80;2.37;;;18.80;76.70;20.00;99804.00;;;;5073560;28;20266;-54
2022/10/24 01:56:05;;;;;;;2.33;2.13;;;18.90;76.80;20.00;99819.00;;;;5090874;28;20258;-54
2022/10/24 01:58:31;;;;;;;2.37;2.17;;;18.80;76.60;20.00;99818.00;;;;5092212;28;20173;-53
2022/10/24 02:01:00;;;;;;;3.23;2.30;;;18.80;76.60;20.00;99809.00;;;;5090792;28;20196;-54
2022/10/24 02:03:53;;;;;;;2.20;2.00;;;18.80;76.70;20.00;99817.00;;;;5090404;28;20553;-53
2022/10/24 02:06:26;;;;;;;2.40;2.20;;;18.80;76.70;20.00;99817.00;;;;5090287;28;20276;-53
2022/10/24 02:08:55;;;;;;;2.40;2.20;;;18.80;76.70;20.00;99808.00;;;;5090434;28;20193;-52
2022/10/24 02:11:21;;;;;;;2.50;2.10;;;18.80;76.70;20.00;99810.00;;;;5090518;28;20166;-52
2022/10/24 02:14:01;;;;;;;3.37;2.40;;;18.80;76.70;20.00;99811.00;;;;5091202;28;20785;-53
2022/10/24 02:16:27;;;;;;;3.47;2.20;;;18.80;76.60;20.00;99786.00;;;;5090104;28;20604;-53
2022/10/24 02:18:54;;;;;;;2.40;2.20;;;18.80;76.60;20.00;99798.00;;;;5089970;28;20280;-53
2022/10/24 02:21:41;;;;;;;2.20;2.00;;;18.80;77.40;20.00;99798.00;;;;5090012;28;20293;-52
2022/10/24 02:24:16;;;;;;;2.37;2.17;;;18.80;76.60;20.00;99803.00;;;;5089924;28;20213;-52
2022/10/24 02:26:57;;;;;;;2.40;2.20;;;18.80;76.60;20.00;99820.00;;;;5090239;28;20652;-53
2022/10/24 02:29:57;;;;;;;2.40;2.20;;;18.80;76.60;20.00;99822.00;;;;5072775;28;20189;-52
2022/10/24 02:32:45;;;;;;;2.40;2.20;;;18.80;76.60;19.90;99810.00;;;;5066224;28;20189;-53
2022/10/24 02:35:12;;;;;;;2.83;2.30;;;18.80;76.60;19.90;99800.00;;;;5089504;28;20596;-54
2022/10/24 02:37:48;;;;;;;2.17;1.97;;;18.80;76.60;19.90;99800.00;;;;5089137;28;20287;-53
2022/10/24 02:40:15;;;;;;;2.33;2.13;;;18.80;76.60;19.90;99800.00;;;;5089515;28;20200;-54
2022/10/24 02:42:41;;;;;;;2.47;2.27;;;18.80;76.60;19.90;99801.00;;;;5089784;28;20533;-53
2022/10/24 02:45:08;;;;;;;2.70;2.40;;;18.80;76.60;19.90;99795.00;;;;5089660;28;20714;-53
2022/10/24 02:47:34;;;;;;;2.40;2.20;;;18.80;76.60;19.90;99798.00;;;;5072974;28;20201;-53
2022/10/24 02:50:00;;;;;;;2.40;2.20;;;18.80;76.60;19.90;99791.00;;;;5089735;28;20193;-53
2022/10/24 02:52:26;;;;;;;2.67;2.20;;;18.80;76.70;19.90;99794.00;;;;5089782;28;20170;-54
2022/10/24 02:54:52;;;;;;;2.30;2.10;;;18.80;76.50;19.90;99796.00;;;;5089528;28;20179;-53
2022/10/24 02:57:20;;;;;;;2.93;2.20;;;18.80;76.60;19.90;99794.00;;;;5090796;28;20173;-53
2022/10/24 02:59:46;;;;;;;3.40;2.33;;;18.80;76.60;19.90;99793.00;;;;5089429;28;20196;-54
2022/10/24 03:02:11;;;;;;;2.60;2.40;;;18.80;76.50;19.90;99794.00;;;;5090633;28;20174;-53
2022/10/24 03:04:37;;;;;;;2.33;2.10;;;18.70;76.40;19.90;99793.00;;;;5090134;28;20172;-54
2022/10/24 03:07:03;;;;;;;2.70;2.23;;;18.80;76.40;19.90;99782.00;;;;5090803;28;20174;-53
2022/10/24 03:09:28;;;;;;;2.43;2.10;;;18.70;76.40;19.90;99789.00;;;;5090520;28;20185;-53
2022/10/24 03:11:54;;;;;;;2.20;2.00;;;18.70;76.40;19.90;99782.00;;;;5090543;28;20169;-53
2022/10/24 03:14:20;;;;;;;2.30;2.10;;;18.70;76.40;19.90;99786.00;;;;5090329;28;20217;-53
2022/10/24 03:16:45;;;;;;;2.40;2.20;;;18.70;76.40;19.90;99788.00;;;;5090449;28;20154;-53
2022/10/24 03:19:11;;;;;;;2.23;2.00;;;18.70;76.40;19.90;99790.00;;;;5090259;28;20190;-53
2022/10/24 03:21:37;;;;;;;2.50;2.27;;;18.70;76.30;19.80;99785.00;;;;5090223;28;20197;-53
2022/10/24 03:24:03;;;;;;;2.30;2.10;;;18.70;76.30;19.90;99783.00;;;;5089704;28;20848;-54
2022/10/24 03:26:28;;;;;;;2.77;2.20;;;18.70;76.20;19.80;99788.00;;;;5090193;28;20165;-53
2022/10/24 03:28:54;;;;;;;4.87;2.50;;;18.70;76.30;19.80;99789.00;;;;5082133;28;20600;-52
2022/10/24 03:31:20;;;;;;;2.60;2.30;;;18.70;76.50;19.90;99793.00;;;;5077243;28;20174;-53
2022/10/24 03:33:46;;;;;;;4.80;2.50;;;18.70;76.80;19.80;99802.00;;;;5069026;28;20711;-52
2022/10/24 03:36:11;;;;;;;3.13;2.30;;;18.70;76.40;19.80;99790.00;;;;5069464;28;20200;-51
2022/10/24 03:38:37;;;;;;;4.23;2.23;;;18.70;76.20;19.80;99788.00;;;;5069550;28;20224;-53
2022/10/24 03:41:04;;;;;;;2.63;2.10;;;18.70;76.20;19.80;99783.00;;;;5069529;28;20492;-53
2022/10/24 03:43:29;;;;;;;5.10;2.50;;;18.70;76.20;19.80;99790.00;;;;5069017;28;20215;-53
2022/10/24 03:45:55;;;;;;;5.17;2.30;;;18.80;76.30;19.80;99790.00;;;;5068183;28;20166;-52
2022/10/24 03:48:21;;;;;;;7.20;2.60;;;18.70;76.20;19.80;99787.00;;;;5070106;28;20162;-52
2022/10/24 03:50:46;;;;;;;5.83;2.40;;;18.70;76.30;19.80;99785.00;;;;5068946;28;20157;-54
2022/10/24 03:53:12;;;;;;;5.13;2.43;;;18.70;76.40;19.80;99798.00;;;;5069645;28;20530;-54
2022/10/24 03:55:38;;;;;;;7.80;2.50;;;18.70;76.40;19.80;99793.00;;;;5068440;28;20166;-53
2022/10/24 03:58:04;;;;;;;4.43;2.27;;;18.70;76.50;19.80;99786.00;;;;5070591;28;20239;-53
2022/10/24 04:00:31;;;;;;;4.07;2.17;;;18.70;76.50;19.80;99793.00;;;;5070186;28;20323;-53
2022/10/24 04:02:57;;;;;;;4.57;2.30;;;18.70;76.50;19.80;99795.00;;;;5089680;28;20269;-53
2022/10/24 04:05:22;;;;;;;7.67;2.40;;;18.60;76.40;19.80;99796.00;;;;5089514;28;20243;-53
2022/10/24 04:07:48;;;;;;;5.30;2.30;;;18.60;76.40;19.80;99791.00;;;;5090241;28;20176;-54
2022/10/24 04:10:14;;;;;;;3.77;2.30;;;18.70;76.50;19.80;99789.00;;;;5089818;28;20193;-52
2022/10/24 04:12:40;;;;;;;3.30;2.30;;;18.60;76.40;19.80;99791.00;;;;5090244;28;20169;-54
2022/10/24 04:15:06;;;;;;;4.93;2.20;;;18.60;76.40;19.80;99781.00;;;;5088762;28;20173;-54
2022/10/24 04:17:32;;;;;;;3.30;2.47;;;18.60;76.40;19.80;99794.00;;;;5088591;28;20178;-53
2022/10/24 04:19:58;;;;;;;2.27;2.07;;;18.60;76.40;19.80;99800.00;;;;5089369;28;20696;-54
2022/10/24 04:22:23;;;;;;;2.93;2.23;;;18.60;76.40;19.80;99792.00;;;;5089266;28;20661;-54
2022/10/24 04:24:49;;;;;;;4.07;2.43;;;18.60;76.30;19.80;99789.00;;;;5087456;28;20551;-54
2022/10/24 04:27:15;;;;;;;5.37;2.23;;;18.60;76.20;19.80;99791.00;;;;5092373;28;20570;-54
2022/10/24 04:29:41;;;;;;;6.07;2.37;;;18.60;76.30;19.80;99791.00;;;;5092708;28;20185;-54
2022/10/24 04:32:06;;;;;;;4.90;2.20;;;18.60;76.30;19.70;99791.00;;;;5089802;28;20706;-54
2022/10/24 04:34:35;;;;;;;4.47;2.47;;;18.60;76.40;19.70;99790.00;;;;5088861;28;20214;-54
2022/10/24 04:37:01;;;;;;;4.43;2.30;;;18.60;76.40;19.70;99788.00;;;;5089583;28;20157;-52
2022/10/24 04:39:27;;;;;;;4.60;2.40;;;18.60;76.40;19.70;99788.00;;;;5087214;28;20242;-52
2022/10/24 04:41:52;;;;;;;3.80;2.30;;;18.60;76.40;19.70;99783.00;;;;5089557;28;20565;-53
2022/10/24 04:44:18;;;;;;;4.90;2.60;;;18.60;76.30;19.70;99794.00;;;;5088739;28;20172;-52
2022/10/24 04:46:44;;;;;;;6.70;2.80;;;18.60;76.30;19.70;99786.00;;;;5089175;28;20169;-54
2022/10/24 04:49:10;;;;;;;9.00;2.80;;;18.60;76.30;19.70;99797.00;;;;5089179;28;20189;-51
2022/10/24 04:51:35;;;;;;;10.13;2.90;;;18.60;76.30;19.70;99797.00;;;;5089386;28;20226;-52
2022/10/24 04:54:01;;;;;;;7.03;2.73;;;18.60;76.30;19.70;99798.00;;;;5088709;28;20166;-53
2022/10/24 04:56:27;;;;;;;7.17;3.10;;;18.60;76.20;19.70;99801.00;;;;5088812;28;20175;-53
2022/10/24 04:58:52;;;;;;;5.90;3.10;;;18.50;76.20;19.70;99803.00;;;;5088910;28;20192;-53
2022/10/24 05:01:18;;;;;;;10.23;3.43;;;18.60;76.30;19.70;99797.00;;;;5087663;28;20338;-53
2022/10/24 05:03:44;;;;;;;8.27;2.83;;;18.50;76.20;19.70;99801.00;;;;5087484;28;20197;-53
2022/10/24 05:06:10;;;;;;;8.40;3.10;;;18.50;76.20;19.70;99791.00;;;;5087387;28;20169;-53
2022/10/24 05:08:35;;;;;;;5.17;2.70;;;18.60;76.30;19.70;99788.00;;;;5086784;28;20717;-53
2022/10/24 05:11:01;;;;;;;7.07;2.90;;;18.50;76.10;19.70;99798.00;;;;5088106;28;20173;-54
2022/10/24 05:13:27;;;;;;;7.27;3.07;;;18.50;76.20;19.70;99796.00;;;;5087638;28;20179;-53
2022/10/24 05:15:53;;;;;;;9.17;2.80;;;18.50;76.10;19.70;99800.00;;;;5087959;28;20185;-54
2022/10/24 05:18:19;;;;;;;8.23;2.90;;;18.50;76.20;19.60;99819.00;;;;5087616;28;20544;-54
2022/10/24 05:20:44;;;;;;;5.40;2.80;;;18.50;76.10;19.60;99732.00;;;;5088705;28;20189;-52
2022/10/24 05:23:10;;;;;;;5.73;2.63;;;18.50;76.10;19.60;99817.00;;;;5088672;28;20218;-53
2022/10/24 05:25:36;;;;;;;5.73;2.83;;;18.50;76.10;19.60;99820.00;;;;5087693;28;20424;-53
2022/10/24 05:28:01;;;;;;;4.87;2.60;;;18.50;76.20;19.60;99832.00;;;;5088792;28;20658;-54
2022/10/24 05:30:27;;;;;;;8.70;2.77;;;18.50;76.20;19.60;99826.00;;;;5088734;28;20797;-53
2022/10/24 05:32:53;;;;;;;6.60;2.70;;;18.50;76.20;19.60;99820.00;;;;5088682;28;20166;-53
2022/10/24 05:35:19;;;;;;;5.57;2.80;;;18.50;76.20;19.60;99834.00;;;;5088307;28;20238;-52
2022/10/24 05:37:44;;;;;;;4.00;2.50;;;18.50;76.20;19.60;99826.00;;;;5088790;28;20184;-52
2022/10/24 05:40:11;;;;;;;6.70;2.80;;;18.50;76.20;19.60;99835.00;;;;5087289;28;20656;-52
2022/10/24 05:42:37;;;;;;;8.67;2.87;;;18.50;76.20;19.60;99828.00;;;;5088734;28;20184;-53
2022/10/24 05:45:08;;;;;;;9.73;2.70;;;18.50;76.20;19.60;99826.00;;;;5088233;28;20185;-53
2022/10/24 05:47:33;;;;;;;8.17;2.60;;;18.50;76.20;19.60;99838.00;;;;5089503;28;20153;-54
2022/10/24 05:49:59;;;;;;;3.47;2.40;;;18.50;76.20;19.60;99829.00;;;;5088783;28;20254;-54
2022/10/24 05:52:25;;;;;;;7.83;2.70;;;18.50;76.20;19.60;99837.00;;;;5088849;28;20173;-54
2022/10/24 05:54:50;;;;;;;6.10;2.83;;;18.50;76.20;19.60;99836.00;;;;5087922;28;20199;-54
2022/10/24 05:57:16;;;;;;;8.03;3.00;;;18.50;76.20;19.60;99849.00;;;;5088786;28;20385;-53
2022/10/24 05:59:42;;;;;;;7.93;2.67;;;18.50;76.20;19.60;99844.00;;;;5086872;28;20197;-53
2022/10/24 06:02:15;;;;;;;4.27;2.47;;;18.50;76.30;19.60;99845.00;;;;5088365;28;20240;-54
2022/10/24 06:04:41;;;;;;;3.90;2.33;;;18.50;76.20;19.60;99847.00;;;;5086160;28;20153;-54
2022/10/24 06:07:07;;;;;;;6.80;2.63;;;18.50;76.20;19.60;99840.00;;;;5088465;28;20603;-53
2022/10/24 06:09:33;;;;;;;5.97;2.60;;;18.50;76.20;19.60;99844.00;;;;5088582;28;20195;-54
2022/10/24 06:11:58;;;;;;;4.97;2.40;;;18.50;76.20;19.60;99856.00;;;;5088063;28;20205;-54
2022/10/24 06:14:24;;;;;;;4.60;2.30;;;18.50;76.20;19.60;99843.00;;;;5090175;28;20188;-53
2022/10/24 06:16:50;;;;;;;4.53;2.40;;;18.50;76.20;19.60;99848.00;;;;5092383;28;20647;-54
2022/10/24 06:19:15;;;;;;;4.00;2.30;;;18.50;76.20;19.60;99845.00;;;;5091964;28;20220;-54
2022/10/24 06:21:41;;;;;;;3.70;2.40;;;18.50;76.20;19.50;99845.00;;;;5091639;28;20239;-54
2022/10/24 06:24:07;;;;;;;4.97;2.60;;;18.40;76.10;19.60;99855.00;;;;5091471;28;20226;-53
2022/10/24 06:26:32;;;;;;;5.93;2.40;;;18.40;76.20;19.50;99859.00;;;;5092504;28;20611;-53
2022/10/24 06:28:58;;;;;;;5.47;2.70;;;18.40;77.00;19.50;99852.00;;;;5092728;28;20189;-53
2022/10/24 06:31:25;;;;;;;4.30;2.37;;;18.50;76.20;19.50;99851.00;;;;5092317;28;20173;-53
2022/10/24 06:33:52;;;;;;;3.87;2.40;;;18.50;76.20;19.50;99853.00;;;;5091995;28;20176;-53
2022/10/24 06:36:18;;;;;;;4.70;2.30;;;18.40;76.20;19.50;99861.00;;;;5092047;28;20188;-53
2022/10/24 06:38:44;;;;;;;2.97;2.30;;;18.40;76.20;19.50;99870.00;;;;5091994;28;20189;-53
2022/10/24 06:41:10;;;;;;;3.07;2.30;;;18.40;76.20;19.50;99864.00;;;;5091777;28;20566;-54
2022/10/24 06:43:36;;;;;;;3.07;2.03;;;18.40;76.20;19.50;99868.00;;;;5090026;28;20573;-53
2022/10/24 06:46:09;;;;;;;6.37;2.40;;;18.40;76.00;19.50;99873.00;;;;5090995;28;20191;-54
2022/10/24 06:48:35;;;;;;;3.27;2.17;;;18.50;76.10;19.50;99880.00;;;;5091629;28;20280;-53
2022/10/24 06:51:01;;;;;;;2.77;2.30;;;18.50;76.00;19.50;99888.00;;;;5091387;28;20248;-55
2022/10/24 06:53:27;;;;;;;3.23;2.30;;;18.40;75.90;19.50;99883.00;;;;5091273;28;20741;-54
2022/10/24 06:55:53;;;;;;;4.90;2.40;;;18.40;75.90;19.50;99887.00;;;;5091301;28;20175;-54
2022/10/24 06:58:18;;;;;;;4.60;2.47;;;18.40;75.90;19.50;99878.00;;;;5091771;28;20244;-54
2022/10/24 07:00:44;;;;;;;3.50;2.37;;;18.40;75.90;19.50;99886.00;;;;5091218;28;20789;-53
2022/10/24 07:03:13;;;;;;;4.20;2.30;;;18.50;76.00;19.50;99894.00;;;;5091384;28;20172;-53
2022/10/24 07:05:39;;;;;;;3.40;2.20;;;18.40;75.90;19.50;99900.00;;;;5093316;28;20188;-53
2022/10/24 07:08:05;;;;;;;3.67;2.10;;;18.40;75.90;19.50;99898.00;;;;5093063;28;20759;-53
2022/10/24 07:10:31;;;;;;;3.07;1.90;;;18.40;75.90;19.50;99892.00;;;;5092483;28;20197;-53
2022/10/24 07:12:56;;;;;;;4.20;2.30;;;18.40;75.90;19.40;99904.00;;;;5091057;28;20179;-53
2022/10/24 07:15:22;;;;;;;2.73;2.20;;;18.40;75.90;19.40;99913.00;;;;5090593;28;20216;-53
2022/10/24 07:17:48;;;;;;;2.60;2.00;;;18.40;75.90;19.40;99912.00;;;;5091415;28;20193;-52
2022/10/24 07:20:14;;;;;;;4.07;2.30;;;18.40;75.80;19.40;99912.00;;;;5089913;28;20283;-53
2022/10/24 07:22:40;;;;;;;2.10;1.90;;;18.40;75.90;19.40;99913.00;;;;5090560;28;20214;-54
2022/10/24 07:25:06;;;;;;;3.60;2.10;;;18.40;75.90;19.40;99920.00;;;;4867926;28;20604;-53
2022/10/24 07:27:32;;;;;;;2.20;1.80;;;18.40;75.90;19.40;99913.00;;;;5089029;28;20264;-54
2022/10/24 07:29:58;;;;;;;3.67;2.50;;;18.40;75.90;19.40;99911.00;;;;5090206;28;20287;-54
2022/10/24 07:32:24;;;;;;;3.50;2.20;;;18.40;75.90;19.40;99907.00;;;;5090523;28;20256;-54
2022/10/24 07:34:49;;;;;;;2.83;2.10;;;18.40;75.90;19.40;99920.00;;;;5089834;28;20183;-53
2022/10/24 07:37:16;;;;;;;2.53;1.90;;;18.40;75.90;19.40;99930.00;;;;5090740;28;20176;-55
2022/10/24 07:39:42;;;;;;;2.73;1.90;;;18.40;75.90;19.40;99917.00;;;;5089953;28;20192;-54
2022/10/24 07:42:09;;;;;;;3.30;2.10;;;18.40;75.90;19.40;99927.00;;;;5090564;28;20613;-54
2022/10/24 07:44:35;;;;;;;2.90;2.10;;;18.40;75.90;19.40;99934.00;;;;5090030;28;20165;-54
2022/10/24 07:47:05;;;;;;;2.67;2.10;;;18.40;75.90;19.40;99939.00;;;;5090212;28;20176;-53
2022/10/24 07:49:32;;;;;;;3.27;2.03;;;18.40;75.80;19.40;99939.00;;;;5090468;28;20213;-54
2022/10/24 07:51:58;;;;;;;2.50;2.10;;;18.40;75.80;19.40;99942.00;;;;5090155;28;20161;-54
2022/10/24 07:54:25;;;;;;;3.67;2.10;;;18.40;75.80;19.40;99947.00;;;;5088398;28;20563;-53
2022/10/24 07:56:50;;;;;;;2.27;1.70;;;18.40;75.80;19.40;99942.00;;;;5090109;28;20176;-54
2022/10/24 07:59:16;;;;;;;2.20;2.00;;;18.40;75.80;19.40;99954.00;;;;5090903;28;20193;-52
2022/10/24 08:01:42;;;;;;;2.73;2.20;;;18.40;75.90;19.40;99941.00;;;;5090850;28;20193;-53
2022/10/24 08:04:09;;;;;;;2.20;1.90;;;18.40;75.90;19.40;99939.00;;;;5089997;28;20218;-53
2022/10/24 08:06:35;;;;;;;2.23;2.00;;;18.40;75.90;19.40;99938.00;;;;5088905;28;20731;-54
2022/10/24 08:09:00;;;;;;;3.03;2.10;;;18.40;75.80;19.40;99940.00;;;;5089762;28;20412;-53
2022/10/24 08:11:27;;;;;;;2.60;2.00;;;18.40;75.80;19.40;99932.00;;;;5089744;28;20192;-54
2022/10/24 08:13:53;;;;;;;2.57;2.10;;;18.40;76.50;19.40;99937.00;;;;5089694;28;20213;-53
2022/10/24 08:16:20;;;;;;;3.30;1.90;;;18.40;75.80;19.40;99937.00;;;;5089649;28;20209;-53
2022/10/24 08:18:46;;;;;;;2.30;2.10;;;18.40;75.80;19.40;99930.00;;;;5089535;28;20189;-53
2022/10/24 08:21:13;;;;;;;3.00;1.97;;;18.40;75.80;19.40;99945.00;;;;5088927;28;20660;-52
2022/10/24 08:23:42;;;;;;;2.57;2.00;;;18.40;75.60;19.20;99928.00;;;;4971122;28;20550;-52
2022/10/24 08:26:12;;;;;;;3.93;2.00;;;18.40;75.40;19.40;99928.00;;;;5068147;28;20202;-53
2022/10/24 08:28:37;;;;;;;2.10;1.90;;;18.40;75.60;19.40;99944.00;;;;5082151;28;20204;-53
2022/10/24 08:31:25;;;;;;;7.33;2.50;;;18.40;75.70;19.40;99949.00;;;;5088513;28;20181;-52
2022/10/24 08:33:52;;;;;;;5.97;2.43;;;18.40;75.90;19.40;99950.00;;;;5088674;28;20181;-53
2022/10/24 08:36:26;;;;;;;6.00;2.07;;;18.40;76.00;19.40;99943.00;;;;5087691;28;20260;-53
2022/10/24 08:38:52;;;;;;;5.73;2.00;;;18.40;75.90;19.40;99940.00;;;;5089189;28;20196;-53
2022/10/24 08:41:45;;;;;;;4.37;2.20;;;18.40;75.90;19.40;99940.00;;;;5087905;28;20216;-52
2022/10/24 08:44:38;;;;;;;6.20;2.40;;;18.40;75.90;19.40;99944.00;;;;5089307;28;20246;-53
2022/10/24 08:47:29;;;;;;;5.63;1.90;;;18.40;75.90;19.40;99941.00;;;;5089024;28;20180;-53
2022/10/24 08:50:15;;;;;;;4.93;2.03;;;18.40;76.10;19.40;99954.00;;;;5088515;28;20193;-53
2022/10/24 08:52:59;;;;;;;4.03;2.20;;;18.40;76.20;19.40;99930.00;;;;5073029;28;20248;-52
2022/10/24 08:55:37;;;;;;;6.10;1.90;;;18.40;76.00;19.40;99940.00;;;;5055289;28;20184;-52
2022/10/24 08:58:03;;;;;;;3.73;2.20;;;18.50;76.10;19.40;99932.00;;;;5057104;28;20649;-53
2022/10/24 09:00:36;;;;;;;3.57;1.97;;;18.40;76.00;19.40;99941.00;;;;5087976;28;20427;-53
2022/10/24 09:03:39;;;;;;;3.63;1.90;;;18.40;76.00;19.40;99931.00;;;;5087020;28;20698;-54
2022/10/24 09:06:13;;;;;;;2.33;1.80;;;18.40;76.00;19.40;99948.00;;;;5087488;28;20189;-53
2022/10/24 09:08:53;;;;;;;3.43;2.20;;;18.40;75.90;19.40;99930.00;;;;5087051;28;20200;-53
2022/10/24 09:11:44;;;;;;;3.67;2.00;;;18.50;76.00;19.40;99865.00;;;;5087498;28;20300;-55
2022/10/24 09:14:12;;;;;;;3.77;2.13;;;18.40;76.00;19.40;99954.00;;;;5088732;28;20189;-53
2022/10/24 09:16:40;;;;;;;2.87;1.90;;;18.40;76.10;19.40;99949.00;;;;5087559;28;20210;-54
2022/10/24 09:19:09;;;;;;;2.40;1.90;;;18.40;76.00;19.40;99940.00;;;;5088501;28;20231;-53
2022/10/24 09:21:35;;;;;;;3.00;1.80;;;18.40;76.00;19.40;99959.00;;;;5087353;28;20200;-53
2022/10/24 09:24:01;;;;;;;3.53;1.90;;;18.50;76.00;19.40;99943.00;;;;4964749;28;20540;-54
2022/10/24 09:26:28;;;;;;;4.07;2.00;;;18.40;76.00;19.40;99941.00;;;;5087201;28;20180;-53
2022/10/24 09:28:55;;;;;;;10.57;2.10;;;18.40;76.30;19.40;99944.00;;;;5086632;28;20200;-53
2022/10/24 09:31:23;;;;;;;4.53;2.10;;;18.40;76.40;19.40;99955.00;;;;5088064;28;20180;-52
2022/10/24 09:33:50;;;;;;;3.67;2.27;;;18.40;76.30;19.40;99969.00;;;;5088676;28;20185;-52
2022/10/24 09:36:17;;;;;;;4.57;2.00;;;18.50;76.50;19.40;99957.00;;;;5087972;28;20185;-53
2022/10/24 09:38:44;;;;;;;3.47;1.90;;;18.40;76.50;19.50;99963.00;;;;5088184;28;20288;-52
2022/10/24 09:41:23;;;;;;;2.67;2.00;;;18.40;76.60;19.50;99949.00;;;;5087147;28;20223;-52
2022/10/24 09:43:59;;;;;;;3.67;2.10;;;18.40;76.70;19.50;99982.00;;;;5086977;28;20161;-52
2022/10/24 09:46:35;;;;;;;3.40;1.97;;;18.40;76.70;19.50;99977.00;;;;5088845;28;20199;-52
2022/10/24 09:49:12;;;;;;;2.70;2.07;;;18.50;76.60;19.50;99974.00;;;;5090803;28;20195;-52
2022/10/24 09:51:59;;;;;;;4.70;2.10;;;18.50;76.60;19.50;99984.00;;;;5091520;28;20172;-53
2022/10/24 09:54:30;;;;;;;2.97;2.10;;;18.40;76.40;19.50;99981.00;;;;5091268;28;20228;-53
2022/10/24 09:56:56;;;;;;;3.83;2.03;;;18.50;76.70;19.50;99992.00;;;;5091380;28;20606;-53
2022/10/24 09:59:35;;;;;;;2.47;2.00;;;18.50;76.60;19.40;99989.00;;;;5092294;28;20277;-53
2022/10/24 10:02:13;;;;;;;2.03;1.60;;;18.40;76.60;19.50;99998.00;;;;5092418;28;20212;-52
2022/10/24 10:04:40;;;;;;;3.17;1.73;;;18.50;76.60;19.40;99992.00;;;;5090885;28;20161;-53
2022/10/24 10:07:10;;;;;;;3.27;1.77;;;18.40;76.60;19.40;100007.00;;;;5092103;28;20208;-52
2022/10/24 10:09:41;;;;;;;3.30;1.80;;;18.40;76.70;19.40;99988.00;;;;5090594;28;20249;-51
2022/10/24 10:12:31;;;;;;;2.47;1.90;;;18.40;76.60;19.40;99998.00;;;;5091026;28;20165;-54
2022/10/24 10:14:58;;;;;;;2.00;1.80;;;18.40;76.70;19.40;100006.00;;;;5090832;28;20193;-55
2022/10/24 10:17:26;;;;;;;2.50;1.97;;;18.40;76.70;19.40;100021.00;;;;5090005;28;20181;-52
2022/10/24 10:19:53;;;;;;;2.73;1.87;;;18.40;76.70;19.40;100020.00;;;;5091613;28;20239;-54
2022/10/24 10:22:24;;;;;;;2.50;2.20;;;18.40;76.80;19.40;100024.00;;;;5091740;28;20668;-52
2022/10/24 10:24:50;;;;;;;3.03;2.00;;;18.40;76.70;19.40;100018.00;;;;4940887;28;20174;-52
2022/10/24 10:27:40;;;;;;;3.20;2.03;;;18.40;76.80;19.50;100023.00;;;;5090111;28;20234;-52
2022/10/24 10:30:12;;;;;;;5.73;2.40;;;18.40;76.60;19.40;100017.00;;;;5090006;28;20280;-52
2022/10/24 10:33:21;;;;;;;6.07;2.10;;;18.40;76.60;19.50;100025.00;;;;5091794;28;20329;-52
2022/10/24 10:35:58;;;;;;;5.97;2.90;;;18.50;76.60;19.50;100019.00;;;;5090202;28;20622;-52
2022/10/24 10:38:50;;;;;;;4.33;2.30;;;18.40;76.60;19.50;100025.00;;;;5091463;28;20172;-53
2022/10/24 10:41:32;;;;;;;8.10;2.57;;;18.50;76.60;19.50;100035.00;;;;5072843;28;20207;-53
2022/10/24 10:44:30;;;;;;;7.93;2.90;;;18.50;76.60;19.50;100030.00;;;;5089800;28;20150;-53
2022/10/24 10:47:46;;;;;;;7.60;2.93;;;18.50;76.60;19.50;100043.00;;;;5090069;28;20173;-53
2022/10/24 10:50:36;;;;;;;6.37;2.57;;;18.40;76.60;19.50;100041.00;;;;5060228;28;20272;-52
2022/10/24 10:53:29;;;;;;;6.67;2.23;;;18.40;76.60;19.50;100050.00;;;;5090908;28;20540;-53
2022/10/24 10:56:17;;;;;;;9.13;2.77;;;18.40;76.60;19.40;100050.00;;;;5091096;28;20172;-52
2022/10/24 10:59:13;;;;;;;3.33;2.33;;;18.40;76.60;19.40;100041.00;;;;5090950;28;20197;-52
2022/10/24 11:02:01;;;;;;;6.87;2.60;;;18.40;76.70;19.40;100048.00;;;;5090140;28;20227;-50
2022/10/24 11:04:40;;;;;;;4.17;2.60;;;18.40;77.10;19.50;99970.00;;;;5091300;28;20205;-51
2022/10/24 11:07:24;;;;;;;5.20;2.57;;;18.50;76.80;19.50;100057.00;;;;5057300;28;20195;-50
2022/10/24 11:09:53;;;;;;;7.67;2.50;;;18.50;76.90;19.50;100053.00;;;;5091290;28;20192;-51